createdAt,value
2018-09-19T00:03:43.662Z,18.53
2018-09-19T00:08:47.206Z,18.53
2018-09-19T00:13:50.795Z,18.46
2018-09-19T00:18:54.901Z,18.34
2018-09-19T00:23:58.648Z,18.28
2018-09-19T00:29:02.344Z,18.18
2018-09-19T00:34:06.002Z,18.15
2018-09-19T00:39:10.341Z,18.07
2018-09-19T00:44:15.165Z,17.95
2018-09-19T00:49:19.415Z,17.86
2018-09-19T00:54:22.934Z,17.33
2018-09-19T00:59:26.590Z,17.10
2018-09-19T01:04:30.513Z,16.94
2018-09-19T01:09:34.531Z,17.08
2018-09-19T01:14:38.124Z,17.21
2018-09-19T01:19:41.717Z,17.23
2018-09-19T01:24:45.315Z,17.30
2018-09-19T01:29:49.065Z,17.33
2018-09-19T01:34:52.860Z,17.33
2018-09-19T01:39:56.422Z,17.35
2018-09-19T01:44:59.985Z,17.45
2018-09-19T01:50:03.678Z,17.44
2018-09-19T01:55:07.227Z,17.48
2018-09-19T02:00:11.547Z,17.79
2018-09-19T02:05:15.247Z,17.74
2018-09-19T02:10:18.790Z,17.81
2018-09-19T02:15:22.287Z,17.83
2018-09-19T02:20:25.825Z,17.79
2018-09-19T02:25:29.471Z,17.81
2018-09-19T02:30:33.289Z,17.75
2018-09-19T02:35:36.807Z,17.66
2018-09-19T02:40:40.830Z,17.63
2018-09-19T02:45:44.393Z,17.56
2018-09-19T02:50:47.920Z,17.57
2018-09-19T02:55:51.651Z,17.56
2018-09-19T03:00:55.161Z,17.53
2018-09-19T03:05:58.899Z,17.38
2018-09-19T03:11:07.172Z,17.35
2018-09-19T03:16:10.728Z,17.22
2018-09-19T03:21:14.297Z,17.20
2018-09-19T03:26:17.829Z,17.12
2018-09-19T03:31:21.430Z,17.14
2018-09-19T03:36:24.963Z,17.11
2018-09-19T03:41:28.527Z,16.96
2018-09-19T03:46:32.130Z,16.95
2018-09-19T03:51:35.717Z,16.85
2018-09-19T03:56:39.260Z,16.80
2018-09-19T04:01:42.965Z,16.65
2018-09-19T04:06:46.611Z,16.67
2018-09-19T04:11:50.170Z,16.57
2018-09-19T04:16:53.943Z,16.48
2018-09-19T04:21:57.619Z,16.52
2018-09-19T04:27:01.154Z,16.52
2018-09-19T04:32:04.723Z,16.55
2018-09-19T04:37:08.309Z,16.52
2018-09-19T04:42:11.927Z,16.49
2018-09-19T04:47:16.371Z,16.42
2018-09-19T04:52:19.895Z,16.36
2018-09-19T04:57:23.425Z,16.37
2018-09-19T05:02:26.983Z,16.38
2018-09-19T05:07:30.692Z,16.44
2018-09-19T05:12:34.292Z,16.52
2018-09-19T05:17:37.899Z,16.49
2018-09-19T05:22:41.549Z,16.55
2018-09-19T05:27:45.114Z,16.57
2018-09-19T05:32:48.745Z,16.28
2018-09-19T05:37:52.379Z,16.05
2018-09-19T05:42:55.997Z,16.21
2018-09-19T05:47:59.683Z,16.46
2018-09-19T05:53:04.823Z,16.58
2018-09-19T05:58:08.426Z,16.57
2018-09-19T06:03:12.068Z,16.33
2018-09-19T06:08:15.645Z,16.34
2018-09-19T06:13:19.283Z,16.28
2018-09-19T06:18:23.041Z,16.30
2018-09-19T06:23:26.909Z,16.45
2018-09-19T06:28:37.128Z,16.52
2018-09-19T06:33:40.756Z,16.63
2018-09-19T06:38:44.296Z,16.77
2018-09-19T06:43:48.075Z,17.08
2018-09-19T06:48:51.749Z,17.28
2018-09-19T06:53:55.409Z,17.50
2018-09-19T06:58:58.958Z,17.74
2018-09-19T07:04:02.623Z,18.13
2018-09-19T07:09:07.668Z,18.40
2018-09-19T07:14:11.438Z,18.76
2018-09-19T07:19:15.074Z,19.11
2018-09-19T07:24:18.759Z,19.25
2018-09-19T07:29:22.323Z,19.49
2018-09-19T07:34:25.939Z,19.69
2018-09-19T07:39:29.533Z,20.04
2018-09-19T07:44:33.178Z,20.24
2018-09-19T07:49:36.769Z,20.59
2018-09-19T07:54:40.337Z,20.77
2018-09-19T07:59:43.819Z,20.97
2018-09-19T08:04:47.360Z,21.29
2018-09-19T08:09:50.933Z,21.46
2018-09-19T08:14:54.482Z,21.66
2018-09-19T08:19:58.057Z,21.89
2018-09-19T08:25:01.683Z,22.07
2018-09-19T08:30:08.523Z,22.41
2018-09-19T08:35:12.188Z,22.65
2018-09-19T08:40:15.688Z,22.76
2018-09-19T08:45:19.301Z,22.77
2018-09-19T08:50:22.861Z,22.94
2018-09-19T08:55:27.032Z,23.10
2018-09-19T09:00:30.601Z,23.43
2018-09-19T09:05:34.459Z,23.56
2018-09-19T09:10:38.044Z,23.78
2018-09-19T09:15:41.589Z,23.83
2018-09-19T09:20:45.226Z,23.89
2018-09-19T09:25:48.724Z,24.20
2018-09-19T09:30:59.489Z,24.19
2018-09-19T09:36:03.083Z,24.38
2018-09-19T09:41:07.105Z,24.37
2018-09-19T09:46:10.867Z,24.60
2018-09-19T09:51:14.512Z,24.81
2018-09-19T09:56:18.126Z,25.04
2018-09-19T10:01:22.505Z,25.12
2018-09-19T10:06:26.175Z,25.34
2018-09-19T10:11:29.662Z,25.60
2018-09-19T10:16:33.171Z,25.70
2018-09-19T10:21:36.726Z,25.70
2018-09-19T10:26:40.198Z,25.75
2018-09-19T10:31:43.697Z,25.93
2018-09-19T10:36:47.390Z,25.97
2018-09-19T10:41:51.390Z,25.91
2018-09-19T10:46:55.050Z,26.00
2018-09-19T10:51:58.729Z,26.01
2018-09-19T10:57:02.479Z,26.23
2018-09-19T11:02:06.111Z,26.51
2018-09-19T11:07:17.394Z,26.86
2018-09-19T11:12:20.975Z,26.59
2018-09-19T11:17:24.820Z,26.34
2018-09-19T11:22:28.411Z,26.60
2018-09-19T11:27:32.072Z,26.95
2018-09-19T11:32:35.617Z,27.55
2018-09-19T11:37:39.195Z,27.72
2018-09-19T11:42:42.755Z,27.88
2018-09-19T11:47:46.332Z,27.74
2018-09-19T11:52:50.037Z,27.04
2018-09-19T11:57:53.617Z,27.01
2018-09-19T12:02:57.191Z,27.38
2018-09-19T12:08:00.719Z,27.48
2018-09-19T12:13:04.586Z,27.45
2018-09-19T12:18:08.083Z,27.44
2018-09-19T12:23:11.680Z,27.49
2018-09-19T12:28:15.235Z,27.01
2018-09-19T12:33:18.757Z,26.91
2018-09-19T12:38:22.594Z,27.10
2018-09-19T12:43:26.173Z,27.01
2018-09-19T12:48:29.733Z,27.09
2018-09-19T12:53:33.229Z,27.17
2018-09-19T12:58:37.175Z,27.30
2018-09-19T13:03:40.875Z,27.41
2018-09-19T13:08:44.651Z,27.80
2018-09-19T13:13:48.280Z,28.04
2018-09-19T13:18:51.946Z,28.08
2018-09-19T13:23:55.638Z,28.20
2018-09-19T13:28:59.457Z,28.30
2018-09-19T13:34:03.096Z,28.20
2018-09-19T13:39:09.603Z,28.32
2018-09-19T13:44:20.646Z,28.40
2018-09-19T13:49:27.894Z,28.44
2018-09-19T13:54:31.450Z,28.46
2018-09-19T13:59:35.063Z,28.58
2018-09-19T14:04:38.677Z,28.60
2018-09-19T14:09:42.355Z,28.69
2018-09-19T14:14:48.741Z,28.78
2018-09-19T14:19:52.585Z,28.52
2018-09-19T14:24:56.691Z,28.53
2018-09-19T14:30:00.281Z,28.64
2018-09-19T14:35:03.829Z,28.58
2018-09-19T14:40:07.518Z,28.40
2018-09-19T14:45:11.039Z,28.67
2018-09-19T14:50:14.636Z,28.48
2018-09-19T14:55:18.163Z,28.76
2018-09-19T15:00:28.764Z,28.68
2018-09-19T15:05:32.398Z,28.80
2018-09-19T15:10:36.009Z,28.84
2018-09-19T15:15:39.720Z,28.77
2018-09-19T15:20:43.271Z,28.63
2018-09-19T15:25:47.019Z,28.66
2018-09-19T15:30:50.934Z,28.70
2018-09-19T15:35:54.580Z,28.63
2018-09-19T15:40:58.333Z,28.62
2018-09-19T15:46:01.951Z,28.50
2018-09-19T15:51:05.695Z,28.44
2018-09-19T15:56:09.572Z,28.42
2018-09-19T16:01:13.174Z,28.27
2018-09-19T16:06:16.811Z,28.20
2018-09-19T16:11:20.420Z,28.03
2018-09-19T16:16:23.957Z,28.03
2018-09-19T16:21:27.475Z,27.95
2018-09-19T16:26:31.109Z,27.87
2018-09-19T16:31:34.637Z,27.82
2018-09-19T16:36:38.443Z,27.68
2018-09-19T16:41:42.109Z,27.68
2018-09-19T16:46:45.777Z,27.57
2018-09-19T16:51:55.534Z,27.46
2018-09-19T16:56:59.086Z,27.28
2018-09-19T17:02:02.649Z,27.11
2018-09-19T17:07:06.251Z,27.01
2018-09-19T17:12:09.761Z,26.86
2018-09-19T17:17:13.336Z,26.74
2018-09-19T17:22:16.926Z,26.61
2018-09-19T17:27:21.667Z,26.48
2018-09-19T17:32:25.293Z,26.35
2018-09-19T17:37:28.887Z,26.30
2018-09-19T17:42:32.507Z,26.16
2018-09-19T17:47:36.535Z,26.04
2018-09-19T17:52:40.178Z,25.91
2018-09-19T17:57:43.802Z,25.77
2018-09-19T18:02:47.583Z,25.67
2018-09-19T18:07:51.217Z,25.62
2018-09-19T18:12:54.805Z,25.48
2018-09-19T18:17:58.395Z,25.41
2018-09-19T18:23:02.096Z,25.28
2018-09-19T18:28:05.861Z,25.12
2018-09-19T18:33:09.508Z,24.99
2018-09-19T18:38:13.147Z,24.92
2018-09-19T18:43:16.699Z,24.80
2018-09-19T18:48:20.427Z,24.66
2018-09-19T18:53:24.108Z,24.48
2018-09-19T18:58:27.913Z,24.35
2018-09-19T19:03:32.486Z,24.22
2018-09-19T19:08:36.134Z,24.06
2018-09-19T19:13:39.768Z,23.95
2018-09-19T19:18:43.917Z,23.85
2018-09-19T19:23:47.479Z,23.73
2018-09-19T19:28:55.204Z,23.65
2018-09-19T19:33:58.762Z,23.61
2018-09-19T19:39:02.551Z,23.51
2018-09-19T19:44:06.279Z,23.44
2018-09-19T19:49:09.895Z,23.36
2018-09-19T19:54:13.437Z,23.23
2018-09-19T19:59:17.046Z,23.15
2018-09-19T20:04:20.598Z,23.02
2018-09-19T20:09:24.312Z,22.96
2018-09-19T20:14:27.949Z,22.84
2018-09-19T20:19:31.566Z,22.74
2018-09-19T20:24:35.177Z,22.59
2018-09-19T20:29:38.734Z,22.50
2018-09-19T20:34:42.324Z,22.41
2018-09-19T20:39:45.853Z,22.21
2018-09-19T20:44:49.394Z,21.92
2018-09-19T20:49:52.940Z,21.63
2018-09-19T20:54:57.515Z,21.37
2018-09-19T21:00:01.802Z,21.14
2018-09-19T21:05:05.471Z,20.95
2018-09-19T21:10:09.041Z,20.63
2018-09-19T21:15:12.664Z,20.20
2018-09-19T21:20:16.237Z,19.97
2018-09-19T21:25:20.080Z,19.85
2018-09-19T21:30:32.084Z,19.96
2018-09-19T21:35:35.634Z,19.99
2018-09-19T21:40:39.289Z,19.94
2018-09-19T21:45:42.958Z,19.80
2018-09-19T21:50:47.216Z,19.77
2018-09-19T21:55:50.839Z,19.79
2018-09-19T22:00:59.706Z,19.76
2018-09-19T22:06:03.725Z,19.71
2018-09-19T22:11:07.327Z,19.57
2018-09-19T22:16:10.946Z,19.59
2018-09-19T22:21:14.609Z,19.49
2018-09-19T22:26:18.118Z,19.44
2018-09-19T22:31:21.849Z,19.43
2018-09-19T22:36:25.413Z,19.26
2018-09-19T22:41:29.038Z,19.25
2018-09-19T22:46:32.596Z,19.18
2018-09-19T22:51:36.230Z,19.15
2018-09-19T22:56:39.784Z,19.11
2018-09-19T23:01:43.349Z,19.08
2018-09-19T23:06:48.620Z,18.95
2018-09-19T23:11:52.197Z,18.98
2018-09-19T23:16:55.962Z,18.96
2018-09-19T23:21:59.574Z,18.89
2018-09-19T23:27:03.144Z,18.83
2018-09-19T23:32:06.802Z,18.83
2018-09-19T23:37:10.426Z,18.75
2018-09-19T23:42:14.126Z,18.77
2018-09-19T23:47:17.741Z,18.73
2018-09-19T23:52:21.273Z,18.72
2018-09-19T23:57:24.898Z,18.66
